createdAt,value
2023-01-09T00:01:12.681Z,95.50
2023-01-09T00:03:40.362Z,95.60
2023-01-09T00:06:07.768Z,95.50
2023-01-09T00:08:35.245Z,95.50
2023-01-09T00:11:03.998Z,95.30
2023-01-09T00:13:31.563Z,95.30
2023-01-09T00:15:59.766Z,95.30
2023-01-09T00:18:27.200Z,95.30
2023-01-09T00:20:54.638Z,95.60
2023-01-09T00:23:22.077Z,95.30
2023-01-09T00:25:49.392Z,95.30
2023-01-09T00:28:16.799Z,95.30
2023-01-09T00:30:44.289Z,95.10
2023-01-09T00:33:12.196Z,95.10
2023-01-09T00:35:39.605Z,95.20
2023-01-09T00:38:07.013Z,95.20
2023-01-09T00:40:34.480Z,95.30
2023-01-09T00:43:01.883Z,95.30
2023-01-09T00:45:30.287Z,95.20
2023-01-09T00:48:07.919Z,95.00
2023-01-09T00:50:35.831Z,95.10
2023-01-09T00:53:15.567Z,95.20
2023-01-09T00:55:43.216Z,95.10
2023-01-09T00:58:11.215Z,95.10
2023-01-09T01:00:38.623Z,95.40
2023-01-09T01:03:06.156Z,95.10
2023-01-09T01:05:52.008Z,95.10
2023-01-09T01:08:20.451Z,95.30
2023-01-09T01:10:48.390Z,95.30
2023-01-09T01:13:15.889Z,95.30
2023-01-09T01:15:45.049Z,95.30
2023-01-09T01:18:13.583Z,95.20
2023-01-09T01:20:44.816Z,95.50
2023-01-09T01:23:12.896Z,95.40
2023-01-09T01:25:41.868Z,95.50
2023-01-09T01:28:10.434Z,95.70
2023-01-09T01:30:40.069Z,95.70
2023-01-09T01:33:08.369Z,95.80
2023-01-09T01:35:36.306Z,95.80
2023-01-09T01:38:03.868Z,95.70
2023-01-09T01:40:31.273Z,95.70
2023-01-09T01:42:59.200Z,95.70
2023-01-09T01:45:28.860Z,95.80
2023-01-09T01:48:02.004Z,95.60
2023-01-09T01:50:48.042Z,95.60
2023-01-09T01:53:21.544Z,95.70
2023-01-09T01:56:00.920Z,95.70
2023-01-09T01:58:29.198Z,95.50
2023-01-09T02:00:57.247Z,95.60
2023-01-09T02:03:28.371Z,95.20
2023-01-09T02:05:55.811Z,95.30
2023-01-09T02:08:23.239Z,95.40
2023-01-09T02:10:52.523Z,95.40
2023-01-09T02:13:20.293Z,95.60
2023-01-09T02:16:32.566Z,95.40
2023-01-09T02:19:18.529Z,95.40
2023-01-09T02:21:56.876Z,95.40
2023-01-09T02:24:42.181Z,95.30
2023-01-09T02:27:30.905Z,95.40
2023-01-09T02:30:25.056Z,95.40
2023-01-09T02:33:20.204Z,95.30
2023-01-09T02:35:47.719Z,95.30
2023-01-09T02:38:29.440Z,95.30
2023-01-09T02:41:01.032Z,95.20
2023-01-09T02:43:29.219Z,95.20
2023-01-09T02:45:56.763Z,95.20
2023-01-09T02:48:24.077Z,95.10
2023-01-09T02:51:02.965Z,95.20
2023-01-09T02:54:01.477Z,95.10
2023-01-09T02:56:49.374Z,95.10
2023-01-09T02:59:27.418Z,95.10
2023-01-09T03:02:04.824Z,95.00
2023-01-09T03:04:56.232Z,95.00
2023-01-09T03:07:56.808Z,94.90
2023-01-09T03:10:53.527Z,95.20
2023-01-09T03:13:24.799Z,94.90
2023-01-09T03:15:54.327Z,94.90
2023-01-09T03:18:26.847Z,95.00
2023-01-09T03:20:55.614Z,95.20
2023-01-09T03:23:23.030Z,95.30
2023-01-09T03:25:50.812Z,95.20
2023-01-09T03:28:27.056Z,95.20
2023-01-09T03:30:54.450Z,95.10
2023-01-09T03:33:21.891Z,95.10
2023-01-09T03:35:49.349Z,95.20
2023-01-09T03:38:17.002Z,95.20
2023-01-09T03:40:44.508Z,95.30
2023-01-09T03:43:11.955Z,95.20
2023-01-09T03:45:39.724Z,95.30
2023-01-09T03:48:07.331Z,95.30
2023-01-09T03:50:34.919Z,95.30
2023-01-09T03:53:02.401Z,95.30
2023-01-09T03:55:29.826Z,95.40
2023-01-09T03:57:57.156Z,95.50
2023-01-09T04:00:24.471Z,95.60
2023-01-09T04:02:52.012Z,95.50
2023-01-09T04:05:19.489Z,95.70
2023-01-09T04:07:46.757Z,95.80
2023-01-09T04:10:14.136Z,95.90
2023-01-09T04:12:42.001Z,95.90
2023-01-09T04:15:10.095Z,95.80
2023-01-09T04:17:37.329Z,95.90
2023-01-09T04:20:05.484Z,95.90
2023-01-09T04:22:33.210Z,96.10
2023-01-09T04:25:00.690Z,96.10
2023-01-09T04:27:28.145Z,96.30
2023-01-09T04:29:55.524Z,96.50
2023-01-09T04:32:23.660Z,96.60
2023-01-09T04:34:51.339Z,96.70
2023-01-09T04:37:19.232Z,97.00
2023-01-09T04:39:48.204Z,97.60
2023-01-09T04:42:15.832Z,98.40
2023-01-09T04:44:43.337Z,99.10
2023-01-09T04:47:10.748Z,99.50
2023-01-09T04:49:38.418Z,99.60
2023-01-09T04:52:06.175Z,99.60
2023-01-09T04:54:34.541Z,99.80
2023-01-09T04:57:01.892Z,99.50
2023-01-09T04:59:29.368Z,99.40
2023-01-09T05:01:58.475Z,99.40
2023-01-09T05:04:26.626Z,99.30
2023-01-09T05:06:54.740Z,99.30
2023-01-09T05:09:24.150Z,99.20
2023-01-09T05:11:51.744Z,99.10
2023-01-09T05:14:19.230Z,99.10
2023-01-09T05:16:47.079Z,98.90
2023-01-09T05:19:14.394Z,98.90
2023-01-09T05:21:41.821Z,98.80
2023-01-09T05:24:09.489Z,98.80
2023-01-09T05:26:37.580Z,98.70
2023-01-09T05:29:05.020Z,98.60
2023-01-09T05:31:32.353Z,98.50
2023-01-09T05:34:00.845Z,98.30
2023-01-09T05:36:28.510Z,97.70
2023-01-09T05:38:57.988Z,97.80
2023-01-09T05:41:26.705Z,97.40
2023-01-09T05:43:54.254Z,97.40
2023-01-09T05:46:24.268Z,97.20
2023-01-09T05:48:52.632Z,97.10
2023-01-09T05:51:19.948Z,97.00
2023-01-09T05:53:47.673Z,96.80
2023-01-09T05:56:15.201Z,96.80
2023-01-09T05:58:42.837Z,96.70
2023-01-09T06:01:10.178Z,96.60
2023-01-09T06:03:37.916Z,96.60
2023-01-09T06:06:05.535Z,96.50
2023-01-09T06:08:33.351Z,96.40
2023-01-09T06:11:00.833Z,96.40
2023-01-09T06:13:28.636Z,96.30
2023-01-09T06:15:57.872Z,96.10
2023-01-09T06:18:25.491Z,96.10
2023-01-09T06:20:52.924Z,96.10
2023-01-09T06:23:20.438Z,96.00
2023-01-09T06:25:48.383Z,96.00
2023-01-09T06:28:16.613Z,95.90
2023-01-09T06:30:44.506Z,95.90
2023-01-09T06:33:15.415Z,95.90
2023-01-09T06:35:46.156Z,95.80
2023-01-09T06:38:18.841Z,95.90
2023-01-09T06:40:46.853Z,95.90
2023-01-09T06:43:15.562Z,95.80
2023-01-09T06:45:44.002Z,95.80
2023-01-09T06:48:12.202Z,95.80
2023-01-09T06:50:39.578Z,95.80
2023-01-09T06:53:07.789Z,95.80
2023-01-09T06:55:38.433Z,95.80
2023-01-09T06:58:10.955Z,95.80
2023-01-09T07:00:40.236Z,95.60
2023-01-09T07:03:07.670Z,95.70
2023-01-09T07:05:40.807Z,95.70
2023-01-09T07:08:09.184Z,95.60
2023-01-09T07:10:36.961Z,95.50
2023-01-09T07:13:04.658Z,95.50
2023-01-09T07:15:36.249Z,95.50
2023-01-09T07:18:05.154Z,95.40
2023-01-09T07:20:32.773Z,95.40
2023-01-09T07:23:02.225Z,95.40
2023-01-09T07:25:33.451Z,95.30
2023-01-09T07:28:01.147Z,95.30
2023-01-09T07:30:28.889Z,95.20
2023-01-09T07:32:59.293Z,95.30
2023-01-09T07:35:28.095Z,95.30
2023-01-09T07:37:55.473Z,95.30
2023-01-09T07:40:23.134Z,95.30
2023-01-09T07:42:53.370Z,95.20
2023-01-09T07:45:22.053Z,95.30
2023-01-09T07:47:58.516Z,95.30
2023-01-09T07:50:26.536Z,95.40
2023-01-09T07:52:54.870Z,95.30
2023-01-09T07:55:22.380Z,95.40
2023-01-09T07:57:51.441Z,95.40
2023-01-09T08:00:21.365Z,95.40
2023-01-09T08:02:54.449Z,95.20
2023-01-09T08:05:24.183Z,95.30
2023-01-09T08:07:53.420Z,95.20
2023-01-09T08:10:21.488Z,95.20
2023-01-09T08:12:50.217Z,95.30
2023-01-09T08:15:19.311Z,95.10
2023-01-09T08:17:47.323Z,95.20
2023-01-09T08:20:16.791Z,95.20
2023-01-09T08:22:58.118Z,95.20
2023-01-09T08:25:26.121Z,95.20
2023-01-09T08:27:53.654Z,94.90
2023-01-09T08:30:26.190Z,94.30
2023-01-09T08:32:54.707Z,94.00
2023-01-09T08:35:27.791Z,94.40
2023-01-09T08:37:55.328Z,94.60
2023-01-09T08:40:23.782Z,94.60
2023-01-09T08:43:09.535Z,94.30
2023-01-09T08:45:55.355Z,94.20
2023-01-09T08:48:23.084Z,94.30
2023-01-09T08:50:53.499Z,94.10
2023-01-09T08:53:21.371Z,94.20
2023-01-09T08:55:49.057Z,94.30
2023-01-09T08:58:16.591Z,94.40
2023-01-09T09:00:43.989Z,94.20
2023-01-09T09:03:14.385Z,94.10
2023-01-09T09:05:41.866Z,94.40
2023-01-09T09:08:09.630Z,94.80
2023-01-09T09:10:37.433Z,94.70
2023-01-09T09:13:05.193Z,94.60
2023-01-09T09:15:34.646Z,94.60
2023-01-09T09:18:05.114Z,94.70
2023-01-09T09:20:35.191Z,94.70
2023-01-09T09:23:03.633Z,94.50
2023-01-09T09:25:31.672Z,94.60
2023-01-09T09:28:01.172Z,94.40
2023-01-09T09:30:29.237Z,94.20
2023-01-09T09:32:56.741Z,94.10
2023-01-09T09:35:24.897Z,94.00
2023-01-09T09:38:02.629Z,94.60
2023-01-09T09:40:52.938Z,94.70
2023-01-09T09:43:43.271Z,94.70
2023-01-09T09:46:28.881Z,94.80
2023-01-09T09:49:33.747Z,95.00
2023-01-09T09:52:13.243Z,95.00
2023-01-09T09:54:47.415Z,94.90
2023-01-09T09:57:33.913Z,94.90
2023-01-09T10:00:04.004Z,95.00
2023-01-09T10:02:51.698Z,95.10
2023-01-09T10:05:43.790Z,95.40
2023-01-09T10:08:45.702Z,95.40
2023-01-09T10:11:35.543Z,95.50
2023-01-09T10:14:06.365Z,94.90
2023-01-09T10:16:55.395Z,94.80
2023-01-09T10:19:53.204Z,94.80
2023-01-09T10:22:43.320Z,94.50
2023-01-09T10:25:28.156Z,94.20
2023-01-09T10:28:27.178Z,94.10
2023-01-09T10:31:21.704Z,94.30
2023-01-09T10:33:56.055Z,94.20
2023-01-09T10:36:47.040Z,94.20
2023-01-09T10:39:25.885Z,94.20
2023-01-09T10:42:01.956Z,94.20
2023-01-09T10:44:42.406Z,94.20
2023-01-09T10:47:34.230Z,94.00
2023-01-09T10:50:30.873Z,94.00
2023-01-09T10:52:59.470Z,93.80
2023-01-09T10:55:44.605Z,93.70
2023-01-09T10:58:17.904Z,93.70
2023-01-09T11:00:46.562Z,93.60
2023-01-09T11:03:18.443Z,93.40
2023-01-09T11:05:52.383Z,93.10
2023-01-09T11:08:28.896Z,93.10
2023-01-09T11:10:59.689Z,92.90
2023-01-09T11:13:30.561Z,92.80
2023-01-09T11:16:07.054Z,92.70
2023-01-09T11:18:40.588Z,92.70
2023-01-09T11:21:29.283Z,92.50
2023-01-09T11:23:57.373Z,92.60
2023-01-09T11:26:27.472Z,92.40
2023-01-09T11:29:16.022Z,92.40
2023-01-09T11:32:02.151Z,92.30
2023-01-09T11:34:32.996Z,91.50
2023-01-09T11:37:13.904Z,91.20
2023-01-09T11:39:48.170Z,91.20
2023-01-09T11:42:45.220Z,91.00
2023-01-09T11:45:20.790Z,91.20
2023-01-09T11:47:48.432Z,91.10
2023-01-09T11:50:24.873Z,91.00
2023-01-09T11:53:07.495Z,90.90
2023-01-09T11:55:42.546Z,90.60
2023-01-09T11:58:18.648Z,90.80
2023-01-09T12:00:57.874Z,90.80
2023-01-09T12:03:43.085Z,90.70
2023-01-09T12:06:18.294Z,90.50
2023-01-09T12:09:01.324Z,90.80
2023-01-09T12:11:31.657Z,91.00
2023-01-09T12:14:03.613Z,91.00
2023-01-09T12:16:51.167Z,90.90
2023-01-09T12:19:43.930Z,90.80
2023-01-09T12:22:44.403Z,90.80
2023-01-09T12:25:48.875Z,90.50
2023-01-09T12:28:35.145Z,90.70
2023-01-09T12:31:50.498Z,90.80
2023-01-09T12:34:31.135Z,90.70
2023-01-09T12:37:11.801Z,90.90
2023-01-09T12:40:00.240Z,90.90
2023-01-09T12:42:33.262Z,90.70
2023-01-09T12:45:28.711Z,90.80
2023-01-09T12:48:23.404Z,90.90
2023-01-09T12:51:03.273Z,90.90
2023-01-09T12:53:46.985Z,90.80
2023-01-09T12:56:23.789Z,90.80
2023-01-09T12:59:13.791Z,90.30
2023-01-09T13:01:46.665Z,90.30
2023-01-09T13:04:25.637Z,90.30
2023-01-09T13:07:04.570Z,89.90
2023-01-09T13:09:48.619Z,90.00
2023-01-09T13:12:21.498Z,89.30
2023-01-09T13:15:04.068Z,89.00
2023-01-09T13:18:02.021Z,89.00
2023-01-09T13:20:43.928Z,89.20
2023-01-09T13:23:37.177Z,89.10
2023-01-09T13:26:17.256Z,88.60
2023-01-09T13:28:50.373Z,88.60
2023-01-09T13:31:42.603Z,88.30
2023-01-09T13:34:26.417Z,88.60
2023-01-09T13:36:56.359Z,88.90
2023-01-09T13:39:29.888Z,89.20
2023-01-09T13:42:24.918Z,89.10
2023-01-09T13:44:56.702Z,89.30
2023-01-09T13:47:28.820Z,89.20
2023-01-09T13:50:09.548Z,89.30
2023-01-09T13:52:37.971Z,88.70
2023-01-09T13:55:15.064Z,88.90
2023-01-09T13:58:14.534Z,88.80
2023-01-09T14:00:43.898Z,88.80
2023-01-09T14:03:18.483Z,88.30
2023-01-09T14:05:45.919Z,88.60
2023-01-09T14:08:19.244Z,88.50
2023-01-09T14:10:49.963Z,88.80
2023-01-09T14:13:39.953Z,89.20
2023-01-09T14:16:16.179Z,89.40
2023-01-09T14:18:52.542Z,89.70
2023-01-09T14:21:20.333Z,90.00
2023-01-09T14:23:53.200Z,90.00
2023-01-09T14:26:41.353Z,90.10
2023-01-09T14:29:36.805Z,90.20
2023-01-09T14:32:23.129Z,90.30
2023-01-09T14:35:03.120Z,90.20
2023-01-09T14:37:34.022Z,90.10
2023-01-09T14:40:03.652Z,90.00
2023-01-09T14:42:34.421Z,90.00
2023-01-09T14:45:06.848Z,89.90
2023-01-09T14:47:51.625Z,89.30
2023-01-09T14:50:23.811Z,89.50
2023-01-09T14:53:05.722Z,89.50
2023-01-09T14:56:06.025Z,89.30
2023-01-09T14:58:38.090Z,89.20
2023-01-09T15:01:16.990Z,89.20
2023-01-09T15:03:53.643Z,89.80
2023-01-09T15:06:28.604Z,88.90
2023-01-09T15:09:04.211Z,89.20
2023-01-09T15:11:33.061Z,89.80
2023-01-09T15:14:04.393Z,89.30
2023-01-09T15:16:33.259Z,89.20
2023-01-09T15:19:04.460Z,89.00
2023-01-09T15:21:32.796Z,88.60
2023-01-09T15:24:23.299Z,88.90
2023-01-09T15:26:55.599Z,89.10
2023-01-09T15:29:23.608Z,89.30
2023-01-09T15:31:56.773Z,89.30
2023-01-09T15:34:26.080Z,89.50
2023-01-09T15:36:53.873Z,89.10
2023-01-09T15:39:27.875Z,88.80
2023-01-09T15:42:14.515Z,88.70
2023-01-09T15:44:45.882Z,88.50
2023-01-09T15:47:23.370Z,88.70
2023-01-09T15:49:50.950Z,89.30
2023-01-09T15:52:19.320Z,88.30
2023-01-09T15:54:47.129Z,88.50
2023-01-09T15:57:26.740Z,88.40
2023-01-09T15:59:55.546Z,88.30
2023-01-09T16:02:43.324Z,88.20
2023-01-09T16:05:16.261Z,88.10
2023-01-09T16:07:48.623Z,87.90
2023-01-09T16:10:26.583Z,87.80
2023-01-09T16:12:54.686Z,87.90
2023-01-09T16:15:22.511Z,88.10
2023-01-09T16:18:15.847Z,88.00
2023-01-09T16:20:44.483Z,87.90
2023-01-09T16:23:34.892Z,87.80
2023-01-09T16:26:11.782Z,87.60
2023-01-09T16:28:41.121Z,87.80
2023-01-09T16:31:34.896Z,87.70
2023-01-09T16:34:07.168Z,87.60
2023-01-09T16:36:35.734Z,87.70
2023-01-09T16:39:04.222Z,87.50
2023-01-09T16:41:49.983Z,87.80
2023-01-09T16:44:19.413Z,87.70
2023-01-09T16:46:47.015Z,87.70
2023-01-09T16:49:20.402Z,87.90
2023-01-09T16:51:48.607Z,87.80
2023-01-09T16:54:16.424Z,88.00
2023-01-09T16:56:48.759Z,88.10
2023-01-09T16:59:24.791Z,88.20
2023-01-09T17:01:53.642Z,88.20
2023-01-09T17:04:21.225Z,88.30
2023-01-09T17:06:49.707Z,88.40
2023-01-09T17:09:19.461Z,88.60
2023-01-09T17:11:46.874Z,88.50
2023-01-09T17:14:14.868Z,88.30
2023-01-09T17:16:45.991Z,88.30
2023-01-09T17:19:17.820Z,88.50
2023-01-09T17:21:45.696Z,88.50
2023-01-09T17:24:31.925Z,89.50
2023-01-09T17:27:19.423Z,89.50
2023-01-09T17:29:47.235Z,89.40
2023-01-09T17:32:15.980Z,89.50
2023-01-09T17:34:43.815Z,89.50
2023-01-09T17:37:16.550Z,89.50
2023-01-09T17:39:44.805Z,89.20
2023-01-09T17:42:12.401Z,89.00
2023-01-09T17:44:39.664Z,89.00
2023-01-09T17:47:12.456Z,88.80
2023-01-09T17:49:41.892Z,88.60
2023-01-09T17:52:09.242Z,88.70
2023-01-09T17:54:36.667Z,88.30
2023-01-09T17:57:04.331Z,88.20
2023-01-09T17:59:31.746Z,88.20
2023-01-09T18:01:59.387Z,88.20
2023-01-09T18:04:26.804Z,88.40
2023-01-09T18:06:54.652Z,88.50
2023-01-09T18:09:22.242Z,88.30
2023-01-09T18:11:49.524Z,88.20
2023-01-09T18:14:17.616Z,88.20
2023-01-09T18:16:45.471Z,88.10
2023-01-09T18:19:12.925Z,87.80
2023-01-09T18:21:40.425Z,88.70
2023-01-09T18:24:09.303Z,88.20
2023-01-09T18:26:36.944Z,87.90
2023-01-09T18:29:04.447Z,87.70
2023-01-09T18:31:32.129Z,87.70
2023-01-09T18:34:03.169Z,87.20
2023-01-09T18:36:30.882Z,87.50
2023-01-09T18:39:01.126Z,88.20
2023-01-09T18:41:29.988Z,87.50
2023-01-09T18:43:59.757Z,87.50
2023-01-09T18:46:31.970Z,87.40
2023-01-09T18:49:02.699Z,87.40
2023-01-09T18:51:32.046Z,87.00
2023-01-09T18:53:59.583Z,87.10
2023-01-09T18:56:27.063Z,87.20
2023-01-09T18:58:59.114Z,87.00
2023-01-09T19:01:30.655Z,86.80
2023-01-09T19:03:59.723Z,86.80
2023-01-09T19:06:28.837Z,86.60
2023-01-09T19:08:57.771Z,86.70
2023-01-09T19:11:25.334Z,86.50
2023-01-09T19:13:52.665Z,86.30
2023-01-09T19:16:20.712Z,86.50
2023-01-09T19:18:48.510Z,86.40
2023-01-09T19:21:19.331Z,87.30
2023-01-09T19:23:48.065Z,86.60
2023-01-09T19:26:20.684Z,86.60
2023-01-09T19:28:48.564Z,86.90
2023-01-09T19:31:17.400Z,86.70
2023-01-09T19:33:45.382Z,86.70
2023-01-09T19:36:12.908Z,87.40
2023-01-09T19:38:40.341Z,86.80
2023-01-09T19:41:21.140Z,87.00
2023-01-09T19:43:48.665Z,87.10
2023-01-09T19:46:19.645Z,87.10
2023-01-09T19:48:47.498Z,87.30
2023-01-09T19:51:16.733Z,87.20
2023-01-09T19:53:44.804Z,87.20
2023-01-09T19:56:18.735Z,87.00
2023-01-09T19:58:50.534Z,87.00
2023-01-09T20:01:24.880Z,87.10
2023-01-09T20:03:53.953Z,87.40
2023-01-09T20:06:24.950Z,87.40
2023-01-09T20:08:58.008Z,87.60
2023-01-09T20:11:27.316Z,88.40
2023-01-09T20:13:57.896Z,87.70
2023-01-09T20:16:31.125Z,88.50
2023-01-09T20:19:01.265Z,87.90
2023-01-09T20:21:29.249Z,87.90
2023-01-09T20:23:58.726Z,87.90
2023-01-09T20:26:26.489Z,87.90
2023-01-09T20:28:54.776Z,88.00
2023-01-09T20:31:23.652Z,88.00
2023-01-09T20:33:51.507Z,87.80
2023-01-09T20:36:21.774Z,87.90
2023-01-09T20:38:49.054Z,87.90
2023-01-09T20:41:22.795Z,87.80
2023-01-09T20:43:51.833Z,87.60
2023-01-09T20:46:20.988Z,87.70
2023-01-09T20:48:48.674Z,87.70
2023-01-09T20:51:16.790Z,87.90
2023-01-09T20:53:46.243Z,87.70
2023-01-09T20:56:14.422Z,87.90
2023-01-09T20:58:44.461Z,87.90
2023-01-09T21:01:13.290Z,88.00
2023-01-09T21:03:42.043Z,88.00
2023-01-09T21:06:12.347Z,88.10
2023-01-09T21:08:42.188Z,88.20
2023-01-09T21:11:10.399Z,88.30
2023-01-09T21:13:38.616Z,88.30
2023-01-09T21:16:10.013Z,88.50
2023-01-09T21:18:38.010Z,88.60
2023-01-09T21:21:08.084Z,88.80
2023-01-09T21:23:35.994Z,89.00
2023-01-09T21:26:09.899Z,89.20
2023-01-09T21:28:47.326Z,89.40
2023-01-09T21:31:17.420Z,89.50
2023-01-09T21:33:45.157Z,89.70
2023-01-09T21:36:12.724Z,89.70
2023-01-09T21:38:40.821Z,90.00
2023-01-09T21:41:27.831Z,90.00
2023-01-09T21:44:13.890Z,90.00
2023-01-09T21:46:53.669Z,90.10
2023-01-09T21:49:23.321Z,90.20
2023-01-09T21:51:50.768Z,90.20
2023-01-09T21:54:18.381Z,90.40
2023-01-09T21:56:46.233Z,90.10
2023-01-09T21:59:13.502Z,90.20
2023-01-09T22:01:41.116Z,90.20
2023-01-09T22:04:08.830Z,90.30
2023-01-09T22:06:37.494Z,90.30
2023-01-09T22:09:05.263Z,90.20
2023-01-09T22:11:32.835Z,90.30
2023-01-09T22:14:00.409Z,90.70
2023-01-09T22:16:28.037Z,90.50
2023-01-09T22:18:55.942Z,90.50
2023-01-09T22:21:25.105Z,90.50
2023-01-09T22:23:52.405Z,90.40
2023-01-09T22:26:20.520Z,90.80
2023-01-09T22:28:49.230Z,90.40
2023-01-09T22:31:20.205Z,90.40
2023-01-09T22:33:55.284Z,90.40
2023-01-09T22:36:22.911Z,90.50
2023-01-09T22:38:54.811Z,90.40
2023-01-09T22:41:23.622Z,90.30
2023-01-09T22:43:51.505Z,90.40
2023-01-09T22:46:19.034Z,90.50
2023-01-09T22:48:47.152Z,90.40
2023-01-09T22:51:17.861Z,90.50
2023-01-09T22:53:45.720Z,90.60
2023-01-09T22:56:15.731Z,90.60
2023-01-09T22:58:44.183Z,90.70
2023-01-09T23:01:12.455Z,90.80
2023-01-09T23:03:40.456Z,90.70
2023-01-09T23:06:19.668Z,90.80
2023-01-09T23:08:49.552Z,90.90
2023-01-09T23:11:41.951Z,90.90
2023-01-09T23:14:11.106Z,91.00
2023-01-09T23:16:39.015Z,91.20
2023-01-09T23:19:10.018Z,91.30
2023-01-09T23:21:37.680Z,91.40
2023-01-09T23:24:07.001Z,91.40
2023-01-09T23:26:35.225Z,91.50
2023-01-09T23:29:02.779Z,91.70
2023-01-09T23:31:30.216Z,91.70
2023-01-09T23:33:57.951Z,91.80
2023-01-09T23:36:25.463Z,91.90
2023-01-09T23:38:53.009Z,92.10
2023-01-09T23:41:22.459Z,92.20
2023-01-09T23:43:49.831Z,92.70
2023-01-09T23:46:17.264Z,92.50
2023-01-09T23:48:44.703Z,92.60
2023-01-09T23:51:12.137Z,92.60
2023-01-09T23:53:39.538Z,92.70
2023-01-09T23:56:07.049Z,92.80
2023-01-09T23:58:34.442Z,92.70
